| time (UTC) | temp F | wind direction | speed MPH | gust MPH | rain 1hr in | rain 24hr in | rain mn in | humidity % | barometer mb |
| 20260507130831 | 53 | 24 | 0.0 | 7.0 | 0.00 | 0.00 | 0.00 | 73 | 1006.8 |
| 20260507120814 | 48 | 344 | 3.0 | 8.0 | 0.00 | 0.00 | 0.00 | 87 | 1006.8 |
| 20260507110823 | 45 | 359 | 0.0 | 0.0 | 0.00 | 0.00 | 0.00 | 93 | 1006.7 |
| 20260507100815 | 45 | 359 | 0.0 | 0.0 | 0.00 | 0.00 | 0.00 | 93 | 1006.0 |
| 20260507090822 | 45 | 359 | 0.0 | 0.0 | 0.00 | 0.00 | 0.00 | 93 | 1006.3 |
| 20260507080831 | 45 | 359 | 0.0 | 0.0 | 0.00 | 0.00 | 0.00 | 93 | 1006.4 |
| 20260507070816 | 46 | 337 | 0.0 | 0.0 | 0.00 | 0.00 | 0.00 | 93 | 1005.7 |
| 20260507060819 | 47 | 360 | 0.0 | 0.0 | 0.00 | 0.00 | 0.00 | 93 | 1005.3 |
| 20260507050824 | 48 | 318 | 0.0 | 0.0 | 0.00 | 0.00 | 0.00 | 93 | 1005.9 |
| 20260507040830 | 50 | 308 | 0.0 | 3.0 | 0.00 | 0.00 | 0.00 | 93 | 1005.7 |
| 20260507030814 | 53 | 95 | 0.0 | 6.0 | 0.00 | 0.00 | 0.00 | 93 | 1005.0 |
| 20260507020822 | 57 | 330 | 0.0 | 3.0 | 0.00 | 0.00 | 0.00 | 93 | 1004.9 |
| 20260507010814 | 58 | 188 | 0.0 | 6.0 | 0.00 | 0.00 | 0.00 | 93 | 1004.5 |
| 20260507000830 | 58 | 103 | 2.0 | 8.0 | 0.00 | 0.00 | 0.00 | 93 | 1004.1 |
| 20260506220815 | 58 | 123 | 0.0 | 7.0 | 0.00 | 0.00 | 0.00 | 93 | 1004.3 |
| 20260506200811 | 59 | 333 | 1.0 | 5.0 | 0.00 | 0.00 | 0.00 | 92 | 1005.0 |
| 20260506190820 | 60 | 27 | 0.0 | 3.0 | 0.00 | 0.00 | 0.00 | 91 | 1005.3 |
| 20260506170815 | 68 | 96 | 0.0 | 3.0 | 0.00 | 0.00 | 0.00 | 61 | 1006.3 |
| 20260506160816 | 68 | 37 | 0.0 | 6.0 | 0.00 | 0.00 | 0.00 | 59 | 1006.8 |
| 20260506150828 | 67 | 347 | 1.0 | 7.0 | 0.00 | 0.00 | 0.00 | 62 | 1007.6 |